sensor_id;sensor_type;location;lat;lon;timestamp;pressure;altitude;pressure_sealevel;temperature;humidity
13974;BME280;7060;43.770;4.008;2023-02-11T00:01:27;103160.19;;;-1.80;64.34
13974;BME280;7060;43.770;4.008;2023-02-11T00:03:57;103161.97;;;-1.85;64.14
13974;BME280;7060;43.770;4.008;2023-02-11T00:06:27;103159.38;;;-1.91;64.95
13974;BME280;7060;43.770;4.008;2023-02-11T00:08:56;103144.56;;;-2.00;64.73
13974;BME280;7060;43.770;4.008;2023-02-11T00:11:27;103120.16;;;-2.11;64.86
13974;BME280;7060;43.770;4.008;2023-02-11T00:13:57;103134.06;;;-1.98;64.59
13974;BME280;7060;43.770;4.008;2023-02-11T00:16:26;103155.88;;;-1.92;64.92
13974;BME280;7060;43.770;4.008;2023-02-11T00:18:55;103154.13;;;-1.91;65.02
13974;BME280;7060;43.770;4.008;2023-02-11T00:21:25;103156.78;;;-1.96;64.50
13974;BME280;7060;43.770;4.008;2023-02-11T00:23:54;103149.78;;;-2.02;64.74
13974;BME280;7060;43.770;4.008;2023-02-11T00:26:26;103160.28;;;-2.05;65.39
13974;BME280;7060;43.770;4.008;2023-02-11T00:28:55;103158.56;;;-2.09;65.11
13974;BME280;7060;43.770;4.008;2023-02-11T00:31:24;103139.41;;;-2.26;65.05
13974;BME280;7060;43.770;4.008;2023-02-11T00:33:53;103130.75;;;-2.40;65.13
13974;BME280;7060;43.770;4.008;2023-02-11T00:36:24;103143.78;;;-2.29;65.28
13974;BME280;7060;43.770;4.008;2023-02-11T00:38:54;103160.38;;;-2.32;65.32
13974;BME280;7060;43.770;4.008;2023-02-11T00:41:23;103155.19;;;-2.40;65.63
13974;BME280;7060;43.770;4.008;2023-02-11T00:43:53;103155.19;;;-2.43;65.47
13974;BME280;7060;43.770;4.008;2023-02-11T00:46:22;103123.84;;;-2.70;65.86
13974;BME280;7060;43.770;4.008;2023-02-11T00:48:51;103156.94;;;-2.46;65.58
13974;BME280;7060;43.770;4.008;2023-02-11T00:51:23;103158.69;;;-2.48;65.89
13974;BME280;7060;43.770;4.008;2023-02-11T00:53:52;103111.63;;;-2.69;65.76
13974;BME280;7060;43.770;4.008;2023-02-11T00:56:21;103139.50;;;-2.55;65.51
13974;BME280;7060;43.770;4.008;2023-02-11T00:58:50;103152.59;;;-2.53;65.79
13974;BME280;7060;43.770;4.008;2023-02-11T01:01:20;103147.34;;;-2.56;65.83
13974;BME280;7060;43.770;4.008;2023-02-11T01:03:49;103146.47;;;-2.57;65.84
13974;BME280;7060;43.770;4.008;2023-02-11T01:06:17;103140.38;;;-2.56;65.96
13974;BME280;7060;43.770;4.008;2023-02-11T01:08:46;103134.25;;;-2.59;65.84
13974;BME280;7060;43.770;4.008;2023-02-11T01:11:17;103133.41;;;-2.61;65.96
13974;BME280;7060;43.770;4.008;2023-02-11T01:13:46;103127.31;;;-2.68;66.12
13974;BME280;7060;43.770;4.008;2023-02-11T01:16:17;103116.84;;;-2.77;66.21
13974;BME280;7060;43.770;4.008;2023-02-11T01:18:47;103125.56;;;-2.69;66.27
13974;BME280;7060;43.770;4.008;2023-02-11T01:21:16;103127.31;;;-2.69;66.17
13974;BME280;7060;43.770;4.008;2023-02-11T01:23:45;103129.94;;;-2.69;66.09
13974;BME280;7060;43.770;4.008;2023-02-11T01:26:14;103134.31;;;-2.76;66.51
13974;BME280;7060;43.770;4.008;2023-02-11T01:28:44;103134.31;;;-2.78;66.95
13974;BME280;7060;43.770;4.008;2023-02-11T01:31:12;103125.59;;;-2.80;66.97
13974;BME280;7060;43.770;4.008;2023-02-11T01:33:41;103135.19;;;-2.77;66.47
13974;BME280;7060;43.770;4.008;2023-02-11T01:36:11;103135.19;;;-2.79;66.58
13974;BME280;7060;43.770;4.008;2023-02-11T01:38:39;103140.41;;;-2.79;66.54
13974;BME280;7060;43.770;4.008;2023-02-11T01:41:11;103086.34;;;-3.09;66.55
13974;BME280;7060;43.770;4.008;2023-02-11T01:43:43;103129.06;;;-2.90;66.91
13974;BME280;7060;43.770;4.008;2023-02-11T01:46:19;103123.00;;;-2.92;66.99
13974;BME280;7060;43.770;4.008;2023-02-11T01:48:53;103123.88;;;-2.96;66.92
13974;BME280;7060;43.770;4.008;2023-02-11T01:51:28;103125.63;;;-2.98;67.13
13974;BME280;7060;43.770;4.008;2023-02-11T01:53:59;103117.75;;;-2.98;67.31
13974;BME280;7060;43.770;4.008;2023-02-11T01:56:48;103121.25;;;-2.97;67.38
13974;BME280;7060;43.770;4.008;2023-02-11T01:59:39;103111.66;;;-2.97;67.20
13974;BME280;7060;43.770;4.008;2023-02-11T02:02:11;103109.91;;;-2.95;67.21
13974;BME280;7060;43.770;4.008;2023-02-11T02:04:46;103116.03;;;-2.93;67.09
13974;BME280;7060;43.770;4.008;2023-02-11T02:07:25;103115.16;;;-2.93;66.51
13974;BME280;7060;43.770;4.008;2023-02-11T02:09:59;103108.16;;;-2.97;66.80
13974;BME280;7060;43.770;4.008;2023-02-11T02:12:30;103109.91;;;-3.01;66.97
13974;BME280;7060;43.770;4.008;2023-02-11T02:15:18;103095.97;;;-3.01;67.04
13974;BME280;7060;43.770;4.008;2023-02-11T02:17:54;103096.81;;;-3.02;67.22
13974;BME280;7060;43.770;4.008;2023-02-11T02:20:44;103090.72;;;-3.05;67.22
13974;BME280;7060;43.770;4.008;2023-02-11T02:23:28;103096.81;;;-3.09;67.12
13974;BME280;7060;43.770;4.008;2023-02-11T02:26:24;103100.31;;;-3.11;66.95
13974;BME280;7060;43.770;4.008;2023-02-11T02:29:24;103101.19;;;-3.15;67.18
13974;BME280;7060;43.770;4.008;2023-02-11T02:32:23;103103.81;;;-3.21;67.44
13974;BME280;7060;43.770;4.008;2023-02-11T02:35:02;103101.22;;;-3.20;67.21
13974;BME280;7060;43.770;4.008;2023-02-11T02:37:35;103099.44;;;-3.15;66.86
13974;BME280;7060;43.770;4.008;2023-02-11T02:40:10;103106.41;;;-3.12;66.70
13974;BME280;7060;43.770;4.008;2023-02-11T02:42:40;103101.19;;;-3.14;66.29
13974;BME280;7060;43.770;4.008;2023-02-11T02:45:12;103096.81;;;-3.16;66.10
13974;BME280;7060;43.770;4.008;2023-02-11T02:47:42;103085.47;;;-3.17;66.12
13974;BME280;7060;43.770;4.008;2023-02-11T02:50:12;103085.50;;;-3.21;66.03
13974;BME280;7060;43.770;4.008;2023-02-11T02:52:53;103082.91;;;-3.27;65.89
13974;BME280;7060;43.770;4.008;2023-02-11T02:55:33;103085.50;;;-3.36;66.38
13974;BME280;7060;43.770;4.008;2023-02-11T02:58:35;103081.13;;;-3.44;66.35
13974;BME280;7060;43.770;4.008;2023-02-11T03:01:12;103083.78;;;-3.48;66.72
13974;BME280;7060;43.770;4.008;2023-02-11T03:03:50;103085.50;;;-3.53;67.04
13974;BME280;7060;43.770;4.008;2023-02-11T03:06:27;103087.25;;;-3.49;66.97
13974;BME280;7060;43.770;4.008;2023-02-11T03:09:03;103086.38;;;-3.50;66.85
13974;BME280;7060;43.770;4.008;2023-02-11T03:11:38;103087.25;;;-3.51;66.77
13974;BME280;7060;43.770;4.008;2023-02-11T03:14:11;103089.00;;;-3.53;66.59
13974;BME280;7060;43.770;4.008;2023-02-11T03:16:43;103081.13;;;-3.56;66.97
13974;BME280;7060;43.770;4.008;2023-02-11T03:19:17;103076.78;;;-3.57;66.92
13974;BME280;7060;43.770;4.008;2023-02-11T03:21:48;103065.44;;;-3.59;66.89
13974;BME280;7060;43.770;4.008;2023-02-11T03:24:22;103067.19;;;-3.59;66.97
13974;BME280;7060;43.770;4.008;2023-02-11T03:26:55;103076.78;;;-3.60;67.23
13974;BME280;7060;43.770;4.008;2023-02-11T03:29:30;103072.41;;;-3.58;66.65
13974;BME280;7060;43.770;4.008;2023-02-11T03:32:07;103075.91;;;-3.62;66.84
13974;BME280;7060;43.770;4.008;2023-02-11T03:34:46;103028.81;;;-3.86;66.89
13974;BME280;7060;43.770;4.008;2023-02-11T03:37:20;103075.88;;;-3.68;66.83
13974;BME280;7060;43.770;4.008;2023-02-11T03:39:55;103065.44;;;-3.74;66.94
13974;BME280;7060;43.770;4.008;2023-02-11T03:42:29;103077.63;;;-3.76;67.05
13974;BME280;7060;43.770;4.008;2023-02-11T03:45:04;103065.41;;;-3.71;66.68
13974;BME280;7060;43.770;4.008;2023-02-11T03:47:35;103066.28;;;-3.69;66.37
13974;BME280;7060;43.770;4.008;2023-02-11T03:50:09;103031.44;;;-3.88;66.18
13974;BME280;7060;43.770;4.008;2023-02-11T03:52:38;103062.81;;;-3.76;66.29
13974;BME280;7060;43.770;4.008;2023-02-11T03:55:10;103054.97;;;-3.80;66.05
13974;BME280;7060;43.770;4.008;2023-02-11T03:57:39;103050.59;;;-3.87;66.66
13974;BME280;7060;43.770;4.008;2023-02-11T04:00:09;103051.47;;;-3.90;66.39
13974;BME280;7060;43.770;4.008;2023-02-11T04:02:39;103044.47;;;-3.95;66.80
13974;BME280;7060;43.770;4.008;2023-02-11T04:05:12;103035.75;;;-4.07;66.69
13974;BME280;7060;43.770;4.008;2023-02-11T04:07:41;103043.63;;;-3.93;66.99
13974;BME280;7060;43.770;4.008;2023-02-11T04:10:10;103047.09;;;-3.92;67.10
13974;BME280;7060;43.770;4.008;2023-02-11T04:12:39;103034.91;;;-3.93;67.22
13974;BME280;7060;43.770;4.008;2023-02-11T04:15:08;103042.72;;;-3.96;67.42
13974;BME280;7060;43.770;4.008;2023-02-11T04:17:37;103043.59;;;-3.96;67.32
13974;BME280;7060;43.770;4.008;2023-02-11T04:20:06;103045.34;;;-3.95;67.31
13974;BME280;7060;43.770;4.008;2023-02-11T04:22:36;103047.94;;;-3.98;67.43
13974;BME280;7060;43.770;4.008;2023-02-11T04:25:06;103046.19;;;-4.00;67.30
13974;BME280;7060;43.770;4.008;2023-02-11T04:27:35;103047.09;;;-4.04;67.56
13974;BME280;7060;43.770;4.008;2023-02-11T04:30:05;103048.84;;;-4.05;67.49
13974;BME280;7060;43.770;4.008;2023-02-11T04:32:34;103048.84;;;-4.05;67.65
13974;BME280;7060;43.770;4.008;2023-02-11T04:35:03;103041.00;;;-4.08;67.31
13974;BME280;7060;43.770;4.008;2023-02-11T04:37:31;103056.63;;;-4.13;67.37
13974;BME280;7060;43.770;4.008;2023-02-11T04:40:01;103047.03;;;-4.17;67.79
13974;BME280;7060;43.770;4.008;2023-02-11T04:42:30;103045.31;;;-4.18;67.99
13974;BME280;7060;43.770;4.008;2023-02-11T04:44:58;103050.53;;;-4.16;67.30
13974;BME280;7060;43.770;4.008;2023-02-11T04:47:26;103049.66;;;-4.17;67.56
13974;BME280;7060;43.770;4.008;2023-02-11T04:49:55;103047.94;;;-4.13;67.63
13974;BME280;7060;43.770;4.008;2023-02-11T04:52:23;103048.81;;;-4.07;67.18
13974;BME280;7060;43.770;4.008;2023-02-11T04:54:52;103045.34;;;-4.09;67.02
13974;BME280;7060;43.770;4.008;2023-02-11T04:57:22;103051.41;;;-4.13;66.63
13974;BME280;7060;43.770;4.008;2023-02-11T04:59:50;103047.03;;;-4.17;66.34
13974;BME280;7060;43.770;4.008;2023-02-11T05:02:18;103046.13;;;-4.26;66.70
13974;BME280;7060;43.770;4.008;2023-02-11T05:04:47;103044.41;;;-4.30;66.77
13974;BME280;7060;43.770;4.008;2023-02-11T05:07:15;103040.91;;;-4.34;66.96
13974;BME280;7060;43.770;4.008;2023-02-11T05:09:44;103030.44;;;-4.40;66.92
13974;BME280;7060;43.770;4.008;2023-02-11T05:12:12;103031.31;;;-4.41;67.59
13974;BME280;7060;43.770;4.008;2023-02-11T05:14:42;103039.16;;;-4.35;67.93
13974;BME280;7060;43.770;4.008;2023-02-11T05:17:11;103030.47;;;-4.32;67.44
13974;BME280;7060;43.770;4.008;2023-02-11T05:19:40;103007.75;;;-4.52;67.00
13974;BME280;7060;43.770;4.008;2023-02-11T05:22:09;103020.88;;;-4.35;67.04
13974;BME280;7060;43.770;4.008;2023-02-11T05:24:37;103015.66;;;-4.36;67.06
13974;BME280;7060;43.770;4.008;2023-02-11T05:27:06;103023.47;;;-4.41;66.86
13974;BME280;7060;43.770;4.008;2023-02-11T05:29:34;103024.34;;;-4.42;66.88
13974;BME280;7060;43.770;4.008;2023-02-11T05:32:04;103025.19;;;-4.43;67.35
13974;BME280;7060;43.770;4.008;2023-02-11T05:34:35;103022.56;;;-4.48;67.71
13974;BME280;7060;43.770;4.008;2023-02-11T05:37:04;103009.47;;;-4.63;67.59
13974;BME280;7060;43.770;4.008;2023-02-11T05:39:32;103027.78;;;-4.51;67.61
13974;BME280;7060;43.770;4.008;2023-02-11T05:42:01;103025.16;;;-4.51;67.77
13974;BME280;7060;43.770;4.008;2023-02-11T05:44:29;103019.94;;;-4.52;67.60
13974;BME280;7060;43.770;4.008;2023-02-11T05:46:57;103025.16;;;-4.52;67.54
13974;BME280;7060;43.770;4.008;2023-02-11T05:49:28;103023.44;;;-4.50;67.55
13974;BME280;7060;43.770;4.008;2023-02-11T05:51:57;103027.78;;;-4.52;67.75
13974;BME280;7060;43.770;4.008;2023-02-11T05:54:25;103017.34;;;-4.51;67.55
13974;BME280;7060;43.770;4.008;2023-02-11T05:56:54;103022.56;;;-4.48;67.97
13974;BME280;7060;43.770;4.008;2023-02-11T05:59:23;103023.41;;;-4.61;67.80
13974;BME280;7060;43.770;4.008;2023-02-11T06:01:52;103018.19;;;-4.59;68.20
13974;BME280;7060;43.770;4.008;2023-02-11T06:04:20;103024.28;;;-4.53;67.54
13974;BME280;7060;43.770;4.008;2023-02-11T06:06:50;103029.50;;;-4.53;67.65
13974;BME280;7060;43.770;4.008;2023-02-11T06:09:18;103027.75;;;-4.55;67.82
13974;BME280;7060;43.770;4.008;2023-02-11T06:11:47;103028.66;;;-4.56;67.28
13974;BME280;7060;43.770;4.008;2023-02-11T06:14:15;103023.38;;;-4.65;67.75
13974;BME280;7060;43.770;4.008;2023-02-11T06:16:44;103026.88;;;-4.65;67.94
13974;BME280;7060;43.770;4.008;2023-02-11T06:19:12;103027.72;;;-4.67;68.04
13974;BME280;7060;43.770;4.008;2023-02-11T06:21:41;103030.31;;;-4.69;68.44
13974;BME280;7060;43.770;4.008;2023-02-11T06:24:12;103036.44;;;-4.62;68.13
13974;BME280;7060;43.770;4.008;2023-02-11T06:26:42;103036.47;;;-4.61;67.60
13974;BME280;7060;43.770;4.008;2023-02-11T06:29:10;103036.44;;;-4.62;67.36
13974;BME280;7060;43.770;4.008;2023-02-11T06:31:40;103034.72;;;-4.62;67.85
13974;BME280;7060;43.770;4.008;2023-02-11T06:34:09;103019.88;;;-4.72;66.91
13974;BME280;7060;43.770;4.008;2023-02-11T06:36:38;103038.44;;;-3.75;65.41
13974;BME280;7060;43.770;4.008;2023-02-11T06:39:07;103038.31;;;-4.23;66.25
13974;BME280;7060;43.770;4.008;2023-02-11T06:41:37;103049.59;;;-4.41;66.76
13974;BME280;7060;43.770;4.008;2023-02-11T06:44:05;103046.03;;;-4.54;67.45
13974;BME280;7060;43.770;4.008;2023-02-11T06:46:34;103046.03;;;-4.55;66.89
13974;BME280;7060;43.770;4.008;2023-02-11T06:49:02;103046.91;;;-4.59;67.23
13974;BME280;7060;43.770;4.008;2023-02-11T06:51:31;103050.41;;;-4.57;67.45
13974;BME280;7060;43.770;4.008;2023-02-11T06:53:59;103053.88;;;-4.57;67.14
13974;BME280;7060;43.770;4.008;2023-02-11T06:56:28;103055.59;;;-4.60;67.05
13974;BME280;7060;43.770;4.008;2023-02-11T06:58:58;103062.56;;;-4.55;66.88
13974;BME280;7060;43.770;4.008;2023-02-11T07:01:27;103055.63;;;-4.56;66.75
13974;BME280;7060;43.770;4.008;2023-02-11T07:03:55;103065.16;;;-4.55;66.85
13974;BME280;7060;43.770;4.008;2023-02-11T07:06:25;103053.88;;;-4.51;66.99
13974;BME280;7060;43.770;4.008;2023-02-11T07:08:55;103059.97;;;-4.52;67.08
13974;BME280;7060;43.770;4.008;2023-02-11T07:11:25;103004.16;;;-4.81;67.30
13974;BME280;7060;43.770;4.008;2023-02-11T07:13:56;103062.56;;;-4.52;67.35
13974;BME280;7060;43.770;4.008;2023-02-11T07:16:30;103068.66;;;-4.53;67.43
13974;BME280;7060;43.770;4.008;2023-02-11T07:18:59;103071.28;;;-4.51;67.22
13974;BME280;7060;43.770;4.008;2023-02-11T07:21:27;103082.63;;;-4.49;67.36
13974;BME280;7060;43.770;4.008;2023-02-11T07:23:56;103086.09;;;-4.47;67.67
13974;BME280;7060;43.770;4.008;2023-02-11T07:26:24;103088.75;;;-4.39;67.75
13974;BME280;7060;43.770;4.008;2023-02-11T07:28:53;103091.41;;;-4.30;68.03
13974;BME280;7060;43.770;4.008;2023-02-11T07:31:24;103096.69;;;-4.12;67.97
13974;BME280;7060;43.770;4.008;2023-02-11T07:33:57;103057.47;;;-4.21;67.99
13974;BME280;7060;43.770;4.008;2023-02-11T07:36:26;103087.19;;;-3.90;67.97
13974;BME280;7060;43.770;4.008;2023-02-11T07:38:55;103080.25;;;-3.76;68.02
13974;BME280;7060;43.770;4.008;2023-02-11T07:41:26;103086.34;;;-3.65;67.84
13974;BME280;7060;43.770;4.008;2023-02-11T07:43:55;103085.50;;;-3.52;67.91
13974;BME280;7060;43.770;4.008;2023-02-11T07:46:26;103088.13;;;-3.36;68.17
13974;BME280;7060;43.770;4.008;2023-02-11T07:48:56;103087.22;;;-3.08;68.08
13974;BME280;7060;43.770;4.008;2023-02-11T07:51:26;103065.38;;;-2.83;68.12
13974;BME280;7060;43.770;4.008;2023-02-11T07:53:56;103093.97;;;-2.22;68.08
13974;BME280;7060;43.770;4.008;2023-02-11T07:56:26;103092.81;;;-1.69;68.08
13974;BME280;7060;43.770;4.008;2023-02-11T07:58:58;103099.31;;;-1.04;67.66
13974;BME280;7060;43.770;4.008;2023-02-11T08:01:27;103098.03;;;-0.65;66.50
13974;BME280;7060;43.770;4.008;2023-02-11T08:03:58;103097.59;;;-0.27;65.08
13974;BME280;7060;43.770;4.008;2023-02-11T08:06:29;103090.25;;;-0.01;64.62
13974;BME280;7060;43.770;4.008;2023-02-11T08:08:57;103100.97;;;0.44;64.07
13974;BME280;7060;43.770;4.008;2023-02-11T08:11:30;103095.38;;;0.65;63.19
13974;BME280;7060;43.770;4.008;2023-02-11T08:13:59;103086.94;;;0.97;62.54
13974;BME280;7060;43.770;4.008;2023-02-11T08:16:28;103090.81;;;1.26;61.54
13974;BME280;7060;43.770;4.008;2023-02-11T08:19:00;103081.63;;;1.47;60.69
13974;BME280;7060;43.770;4.008;2023-02-11T08:21:29;103081.91;;;1.75;60.82
13974;BME280;7060;43.770;4.008;2023-02-11T08:23:58;103092.59;;;2.10;60.77
13974;BME280;7060;43.770;4.008;2023-02-11T08:26:29;103093.75;;;2.37;59.83
13974;BME280;7060;43.770;4.008;2023-02-11T08:29:06;103083.56;;;2.57;59.08
13974;BME280;7060;43.770;4.008;2023-02-11T08:31:37;103078.78;;;2.73;58.25
13974;BME280;7060;43.770;4.008;2023-02-11T08:34:08;103103.03;;;2.89;58.12
13974;BME280;7060;43.770;4.008;2023-02-11T08:36:39;103085.16;;;3.00;58.50
13974;BME280;7060;43.770;4.008;2023-02-11T08:39:12;103093.47;;;3.17;58.96
13974;BME280;7060;43.770;4.008;2023-02-11T08:41:47;103084.91;;;3.40;58.12
13974;BME280;7060;43.770;4.008;2023-02-11T08:44:16;103092.88;;;3.71;57.93
13974;BME280;7060;43.770;4.008;2023-02-11T08:46:45;103097.84;;;3.82;56.87
13974;BME280;7060;43.770;4.008;2023-02-11T08:49:15;103091.56;;;3.86;56.71
13974;BME280;7060;43.770;4.008;2023-02-11T08:51:44;103084.50;;;3.86;56.64
13974;BME280;7060;43.770;4.008;2023-02-11T08:54:13;103088.13;;;3.82;57.46
13974;BME280;7060;43.770;4.008;2023-02-11T08:56:42;103081.91;;;3.85;56.58
13974;BME280;7060;43.770;4.008;2023-02-11T08:59:12;103088.06;;;3.85;57.46
13974;BME280;7060;43.770;4.008;2023-02-11T09:01:43;103078.22;;;3.90;58.38
13974;BME280;7060;43.770;4.008;2023-02-11T09:04:14;103082.03;;;4.09;57.61
13974;BME280;7060;43.770;4.008;2023-02-11T09:06:43;103078.06;;;4.23;57.02
13974;BME280;7060;43.770;4.008;2023-02-11T09:09:13;103083.94;;;4.32;55.68
13974;BME280;7060;43.770;4.008;2023-02-11T09:11:42;103071.56;;;4.33;55.29
13974;BME280;7060;43.770;4.008;2023-02-11T09:14:17;102993.06;;;4.04;55.13
13974;BME280;7060;43.770;4.008;2023-02-11T09:16:46;103075.88;;;4.63;53.90
13974;BME280;7060;43.770;4.008;2023-02-11T09:19:18;103072.94;;;4.72;54.15
13974;BME280;7060;43.770;4.008;2023-02-11T09:21:49;103081.47;;;4.81;54.27
13974;BME280;7060;43.770;4.008;2023-02-11T09:28:36;103071.53;;;4.87;51.68
13974;BME280;7060;43.770;4.008;2023-02-11T09:31:05;103073.91;;;4.96;50.80
13974;BME280;7060;43.770;4.008;2023-02-11T09:33:35;103077.19;;;5.03;51.66
13974;BME280;7060;43.770;4.008;2023-02-11T09:36:06;103072.47;;;5.13;51.99
13974;BME280;7060;43.770;4.008;2023-02-11T09:38:34;103082.03;;;5.17;49.63
13974;BME280;7060;43.770;4.008;2023-02-11T09:41:04;103081.03;;;5.21;49.39
13974;BME280;7060;43.770;4.008;2023-02-11T09:43:37;103078.88;;;5.30;48.73
13974;BME280;7060;43.770;4.008;2023-02-11T09:46:13;103076.94;;;5.35;47.69
13974;BME280;7060;43.770;4.008;2023-02-11T09:48:45;103085.56;;;5.42;47.16
13974;BME280;7060;43.770;4.008;2023-02-11T09:51:20;103076.63;;;5.44;47.09
13974;BME280;7060;43.770;4.008;2023-02-11T09:53:53;103076.34;;;5.52;47.74
13974;BME280;7060;43.770;4.008;2023-02-11T09:56:27;103064.75;;;5.55;47.59
13974;BME280;7060;43.770;4.008;2023-02-11T09:58:55;103082.69;;;5.71;47.11
13974;BME280;7060;43.770;4.008;2023-02-11T10:01:29;103077.16;;;5.77;46.91
13974;BME280;7060;43.770;4.008;2023-02-11T10:04:06;103077.78;;;5.84;46.22
13974;BME280;7060;43.770;4.008;2023-02-11T10:06:44;103078.63;;;5.85;46.35
13974;BME280;7060;43.770;4.008;2023-02-11T10:09:31;103091.75;;;5.89;46.54
13974;BME280;7060;43.770;4.008;2023-02-11T10:12:19;103087.06;;;5.96;47.19
13974;BME280;7060;43.770;4.008;2023-02-11T10:15:20;103079.81;;;6.01;46.63
13974;BME280;7060;43.770;4.008;2023-02-11T10:18:04;102937.66;;;5.25;46.40
13974;BME280;7060;43.770;4.008;2023-02-11T10:20:42;103092.66;;;6.11;46.44
13974;BME280;7060;43.770;4.008;2023-02-11T10:23:18;103091.19;;;6.26;46.49
13974;BME280;7060;43.770;4.008;2023-02-11T10:25:49;103067.69;;;6.16;46.02
13974;BME280;7060;43.770;4.008;2023-02-11T10:28:22;103094.22;;;6.39;46.11
13974;BME280;7060;43.770;4.008;2023-02-11T10:30:56;103086.06;;;6.43;45.92
13974;BME280;7060;43.770;4.008;2023-02-11T10:33:28;103091.19;;;6.48;45.70
13974;BME280;7060;43.770;4.008;2023-02-11T10:35:58;103084.78;;;6.54;45.67
13974;BME280;7060;43.770;4.008;2023-02-11T10:38:28;103094.22;;;6.61;45.62
13974;BME280;7060;43.770;4.008;2023-02-11T10:40:57;103075.50;;;6.64;45.39
13974;BME280;7060;43.770;4.008;2023-02-11T10:43:27;103082.03;;;6.77;45.56
13974;BME280;7060;43.770;4.008;2023-02-11T10:45:56;103081.03;;;6.79;45.94
13974;BME280;7060;43.770;4.008;2023-02-11T10:48:40;103070.94;;;6.88;44.37
13974;BME280;7060;43.770;4.008;2023-02-11T10:51:18;103093.34;;;7.02;44.57
13974;BME280;7060;43.770;4.008;2023-02-11T10:53:49;103089.75;;;7.03;44.57
13974;BME280;7060;43.770;4.008;2023-02-11T10:56:25;103084.25;;;7.08;44.41
13974;BME280;7060;43.770;4.008;2023-02-11T10:58:57;103085.72;;;7.15;44.46
13974;BME280;7060;43.770;4.008;2023-02-11T11:01:39;103081.44;;;7.31;45.35
13974;BME280;7060;43.770;4.008;2023-02-11T11:04:31;103080.03;;;7.44;45.20
13974;BME280;7060;43.770;4.008;2023-02-11T11:07:14;103071.47;;;7.57;45.29
13974;BME280;7060;43.770;4.008;2023-02-11T11:09:48;103071.72;;;7.71;44.42
13974;BME280;7060;43.770;4.008;2023-02-11T11:12:33;103030.19;;;7.67;44.01
13974;BME280;7060;43.770;4.008;2023-02-11T11:15:15;103017.88;;;7.64;43.71
13974;BME280;7060;43.770;4.008;2023-02-11T11:17:45;103048.34;;;7.96;44.08
13974;BME280;7060;43.770;4.008;2023-02-11T11:20:18;103042.31;;;8.10;43.72
13974;BME280;7060;43.770;4.008;2023-02-11T11:22:49;103038.00;;;8.26;43.26
13974;BME280;7060;43.770;4.008;2023-02-11T11:25:24;103040.69;;;8.43;43.17
13974;BME280;7060;43.770;4.008;2023-02-11T11:27:55;103037.19;;;8.60;43.13
13974;BME280;7060;43.770;4.008;2023-02-11T11:30:27;103030.22;;;8.75;43.83
13974;BME280;7060;43.770;4.008;2023-02-11T11:32:58;103017.88;;;8.90;43.16
13974;BME280;7060;43.770;4.008;2023-02-11T11:35:29;103012.09;;;8.99;42.51
13974;BME280;7060;43.770;4.008;2023-02-11T11:38:01;103002.81;;;9.06;41.44
13974;BME280;7060;43.770;4.008;2023-02-11T11:40:34;103011.03;;;9.18;41.96
13974;BME280;7060;43.770;4.008;2023-02-11T11:43:14;103007.03;;;9.27;41.81
13974;BME280;7060;43.770;4.008;2023-02-11T11:45:55;103007.94;;;9.43;41.82
13974;BME280;7060;43.770;4.008;2023-02-11T11:48:25;103006.03;;;9.45;42.08
13974;BME280;7060;43.770;4.008;2023-02-11T11:50:57;102994.16;;;9.51;40.89
13974;BME280;7060;43.770;4.008;2023-02-11T11:53:31;102995.25;;;9.64;40.35
13974;BME280;7060;43.770;4.008;2023-02-11T11:56:05;102990.47;;;9.69;40.21
13974;BME280;7060;43.770;4.008;2023-02-11T11:58:34;102981.44;;;9.72;39.91
13974;BME280;7060;43.770;4.008;2023-02-11T12:01:13;102984.22;;;9.86;40.59
13974;BME280;7060;43.770;4.008;2023-02-11T12:04:02;102986.47;;;9.94;39.70
13974;BME280;7060;43.770;4.008;2023-02-11T12:06:40;102976.50;;;9.96;39.78
13974;BME280;7060;43.770;4.008;2023-02-11T12:09:19;102971.69;;;10.02;39.03
13974;BME280;7060;43.770;4.008;2023-02-11T12:12:01;102967.91;;;10.06;39.57
13974;BME280;7060;43.770;4.008;2023-02-11T12:14:40;102969.28;;;10.13;38.93
13974;BME280;7060;43.770;4.008;2023-02-11T12:17:19;102965.66;;;10.14;38.78
13974;BME280;7060;43.770;4.008;2023-02-11T12:20:04;102965.38;;;10.19;38.52
13974;BME280;7060;43.770;4.008;2023-02-11T12:22:49;102966.16;;;10.21;38.39
13974;BME280;7060;43.770;4.008;2023-02-11T12:25:27;102944.44;;;10.11;38.70
13974;BME280;7060;43.770;4.008;2023-02-11T12:28:07;102960.34;;;10.29;38.62
13974;BME280;7060;43.770;4.008;2023-02-11T12:30:57;102958.00;;;10.38;38.02
13974;BME280;7060;43.770;4.008;2023-02-11T12:33:41;102950.94;;;10.37;38.49
13974;BME280;7060;43.770;4.008;2023-02-11T12:36:24;102946.34;;;10.39;38.22
13974;BME280;7060;43.770;4.008;2023-02-11T12:39:08;102943.69;;;10.39;37.79
13974;BME280;7060;43.770;4.008;2023-02-11T12:41:51;102943.59;;;10.41;37.73
13974;BME280;7060;43.770;4.008;2023-02-11T12:44:58;102931.94;;;10.42;38.24
13974;BME280;7060;43.770;4.008;2023-02-11T12:47:40;102937.13;;;10.45;37.91
13974;BME280;7060;43.770;4.008;2023-02-11T12:50:18;102925.16;;;10.50;38.46
13974;BME280;7060;43.770;4.008;2023-02-11T12:53:01;102927.47;;;10.57;38.07
13974;BME280;7060;43.770;4.008;2023-02-11T12:55:34;102924.34;;;10.64;38.25
13974;BME280;7060;43.770;4.008;2023-02-11T12:58:04;102922.25;;;10.69;38.33
13974;BME280;7060;43.770;4.008;2023-02-11T13:00:44;102922.38;;;10.82;37.56
13974;BME280;7060;43.770;4.008;2023-02-11T13:03:19;102917.44;;;10.90;37.22
13974;BME280;7060;43.770;4.008;2023-02-11T13:05:52;102921.66;;;10.94;37.56
13974;BME280;7060;43.770;4.008;2023-02-11T13:08:27;102910.75;;;10.97;36.92
13974;BME280;7060;43.770;4.008;2023-02-11T13:10:59;102912.28;;;11.01;36.63
13974;BME280;7060;43.770;4.008;2023-02-11T13:13:33;102903.75;;;11.09;37.00
13974;BME280;7060;43.770;4.008;2023-02-11T13:16:06;102906.06;;;11.15;37.48
13974;BME280;7060;43.770;4.008;2023-02-11T13:18:44;102894.19;;;11.19;37.01
13974;BME280;7060;43.770;4.008;2023-02-11T13:21:39;102896.59;;;11.24;37.21
13974;BME280;7060;43.770;4.008;2023-02-11T13:24:19;102886.63;;;11.26;36.12
13974;BME280;7060;43.770;4.008;2023-02-11T13:26:57;102889.03;;;11.30;36.17
13974;BME280;7060;43.770;4.008;2023-02-11T13:29:32;102887.84;;;11.34;37.09
13974;BME280;7060;43.770;4.008;2023-02-11T13:32:09;102895.78;;;11.36;36.73
13974;BME280;7060;43.770;4.008;2023-02-11T13:34:56;102737.50;;;10.44;37.10
13974;BME280;7060;43.770;4.008;2023-02-11T13:37:27;102868.38;;;11.18;36.25